Repülésmeteorológia

  • METAR LHSM 191215Z AUTO VRB02KT 8000 NCD 30/19 Q1016 NOSIG=
  • METAR LHSM 191145Z AUTO VRB01KT 8000 NCD 29/20 Q1016 NOSIG=
  • METAR LHSM 191115Z AUTO VRB01KT 5000 HZ NCD 29/18 Q1016 NOSIG=
  • METAR LHSM 191045Z AUTO 16003KT 080V240 9000 NCD 28/18 Q1016 NOSIG=
  • METAR LHSM 191015Z AUTO VRB02KT 9000 NCD 28/19 Q1016 NOSIG=

  • TAF LHSM 191115Z 1912/1921 VRB02KT CAVOK=
  • TAF LHSM 190815Z 1909/1918 20005KT CAVOK=
  • TAF LHSM 190515Z 1906/1915 17006KT CAVOK=
  • TAF LHSM 181415Z 1815/1824 19011KT CAVOK BECMG 1815/1818 16006KT=
  • TAF LHSM 181115Z 1812/1821 18011KT CAVOK BECMG 1815/1818 16006KT=